sensor_id;sensor_type;location;lat;lon;timestamp;pressure;altitude;pressure_sealevel;temperature;humidity
72961;BME280;61141;46.204;19.774;2023-02-01T00:00:18;100692.41;;;4.36;72.94
72961;BME280;61141;46.204;19.774;2023-02-01T00:03:22;100705.31;;;4.39;73.45
72961;BME280;61141;46.204;19.774;2023-02-01T00:06:24;100697.19;;;4.30;73.34
72961;BME280;61141;46.204;19.774;2023-02-01T00:09:27;100721.91;;;4.46;72.56
72961;BME280;61141;46.204;19.774;2023-02-01T00:12:31;100705.31;;;4.39;73.44
72961;BME280;61141;46.204;19.774;2023-02-01T00:15:34;100708.34;;;4.37;73.50
72961;BME280;61141;46.204;19.774;2023-02-01T00:18:37;100711.69;;;4.43;74.00
72961;BME280;61141;46.204;19.774;2023-02-01T00:21:41;100697.31;;;4.34;72.37
72961;BME280;61141;46.204;19.774;2023-02-01T00:24:44;100688.25;;;4.30;72.85
72961;BME280;61141;46.204;19.774;2023-02-01T00:27:50;100708.81;;;4.39;72.44
72961;BME280;61141;46.204;19.774;2023-02-01T00:30:57;100704.34;;;4.35;72.40
72961;BME280;61141;46.204;19.774;2023-02-01T00:34:00;100693.50;;;4.43;71.48
72961;BME280;61141;46.204;19.774;2023-02-01T00:37:03;100683.47;;;4.44;70.91
72961;BME280;61141;46.204;19.774;2023-02-01T00:40:07;100703.38;;;4.56;71.00
72961;BME280;61141;46.204;19.774;2023-02-01T00:43:10;100681.22;;;4.37;72.01
72961;BME280;61141;46.204;19.774;2023-02-01T00:46:14;100687.16;;;4.31;72.63
72961;BME280;61141;46.204;19.774;2023-02-01T00:49:18;100677.25;;;4.35;72.84
72961;BME280;61141;46.204;19.774;2023-02-01T00:52:21;100653.97;;;4.08;72.33
72961;BME280;61141;46.204;19.774;2023-02-01T00:55:23;100668.16;;;4.22;71.94
72961;BME280;61141;46.204;19.774;2023-02-01T00:58:27;100670.72;;;4.27;71.86
72961;BME280;61141;46.204;19.774;2023-02-01T01:01:30;100652.66;;;4.23;72.15
72961;BME280;61141;46.204;19.774;2023-02-01T01:04:33;100676.59;;;4.38;71.46
72961;BME280;61141;46.204;19.774;2023-02-01T01:07:35;100674.66;;;4.64;71.34
72961;BME280;61141;46.204;19.774;2023-02-01T01:10:39;100659.38;;;4.34;70.83
72961;BME280;61141;46.204;19.774;2023-02-01T01:13:42;100667.66;;;4.46;70.96
72961;BME280;61141;46.204;19.774;2023-02-01T01:16:45;100672.75;;;4.56;71.31
72961;BME280;61141;46.204;19.774;2023-02-01T01:19:47;100665.75;;;4.38;70.90
72961;BME280;61141;46.204;19.774;2023-02-01T01:22:50;100670.22;;;4.51;70.93
72961;BME280;61141;46.204;19.774;2023-02-01T01:25:53;100677.56;;;4.42;70.76
72961;BME280;61141;46.204;19.774;2023-02-01T01:28:58;100675.97;;;4.32;71.55
72961;BME280;61141;46.204;19.774;2023-02-01T01:32:01;100662.88;;;4.43;71.85
72961;BME280;61141;46.204;19.774;2023-02-01T01:35:05;100647.88;;;4.37;71.79
72961;BME280;61141;46.204;19.774;2023-02-01T01:38:10;100663.19;;;4.15;73.29
72961;BME280;61141;46.204;19.774;2023-02-01T01:41:22;100648.69;;;4.20;73.66
72961;BME280;61141;46.204;19.774;2023-02-01T01:48:17;100631.47;;;4.07;76.17
72961;BME280;61141;46.204;19.774;2023-02-01T01:51:23;100636.41;;;4.05;76.02
72961;BME280;61141;46.204;19.774;2023-02-01T01:54:37;100631.94;;;4.01;76.70
72961;BME280;61141;46.204;19.774;2023-02-01T01:57:44;100632.75;;;4.01;76.43
72961;BME280;61141;46.204;19.774;2023-02-01T02:00:49;100606.28;;;3.98;76.82
72961;BME280;61141;46.204;19.774;2023-02-01T02:03:53;100636.25;;;4.10;76.15
72961;BME280;61141;46.204;19.774;2023-02-01T02:07:13;100628.28;;;4.05;76.77
72961;BME280;61141;46.204;19.774;2023-02-01T02:10:18;100634.34;;;4.11;75.98
72961;BME280;61141;46.204;19.774;2023-02-01T02:13:22;100637.19;;;4.14;75.39
72961;BME280;61141;46.204;19.774;2023-02-01T02:20:17;100616.66;;;4.13;75.26
72961;BME280;61141;46.204;19.774;2023-02-01T02:23:31;100641.03;;;4.13;75.79
72961;BME280;61141;46.204;19.774;2023-02-01T02:33:50;100611.69;;;4.33;73.37
72961;BME280;61141;46.204;19.774;2023-02-01T02:40:32;100598.28;;;4.36;72.20
72961;BME280;61141;46.204;19.774;2023-02-01T02:43:48;100598.25;;;4.53;69.76
72961;BME280;61141;46.204;19.774;2023-02-01T02:47:26;100580.06;;;4.54;69.18
72961;BME280;61141;46.204;19.774;2023-02-01T02:54:18;100590.91;;;4.54;69.11
72961;BME280;61141;46.204;19.774;2023-02-01T02:57:42;100595.03;;;4.68;69.09
72961;BME280;61141;46.204;19.774;2023-02-01T03:01:05;100579.87;;;4.59;69.46
72961;BME280;61141;46.204;19.774;2023-02-01T03:04:28;100575.06;;;4.64;68.58
72961;BME280;61141;46.204;19.774;2023-02-01T03:08:02;100568.06;;;4.63;68.41
72961;BME280;61141;46.204;19.774;2023-02-01T03:11:10;100578.59;;;4.65;68.94
72961;BME280;61141;46.204;19.774;2023-02-01T03:14:15;100586.72;;;4.65;68.47
72961;BME280;61141;46.204;19.774;2023-02-01T03:17:25;100578.12;;;4.63;68.40
72961;BME280;61141;46.204;19.774;2023-02-01T03:20:31;100570.19;;;4.49;69.05
72961;BME280;61141;46.204;19.774;2023-02-01T03:23:36;100560.62;;;4.35;69.63
72961;BME280;61141;46.204;19.774;2023-02-01T03:26:46;100577.69;;;4.44;70.05
72961;BME280;61141;46.204;19.774;2023-02-01T03:33:00;100590.91;;;4.54;68.42
72961;BME280;61141;46.204;19.774;2023-02-01T03:39:31;100583.56;;;4.54;69.34
72961;BME280;61141;46.204;19.774;2023-02-01T03:42:38;100572.91;;;4.41;68.42
72961;BME280;61141;46.204;19.774;2023-02-01T03:45:47;100597.13;;;4.54;68.72
72961;BME280;61141;46.204;19.774;2023-02-01T03:48:52;100593.78;;;4.49;68.97
72961;BME280;61141;46.204;19.774;2023-02-01T03:51:58;100575.78;;;4.53;68.13
72961;BME280;61141;46.204;19.774;2023-02-01T03:55:02;100581.00;;;4.58;67.72
72961;BME280;61141;46.204;19.774;2023-02-01T03:58:11;100582.59;;;4.50;68.08
72961;BME280;61141;46.204;19.774;2023-02-01T04:01:14;100585.66;;;4.49;68.35
72961;BME280;61141;46.204;19.774;2023-02-01T04:04:18;100597.78;;;4.43;68.41
72961;BME280;61141;46.204;19.774;2023-02-01T04:07:24;100592.38;;;4.34;68.34
72961;BME280;61141;46.204;19.774;2023-02-01T04:10:27;100574.03;;;4.23;68.14
72961;BME280;61141;46.204;19.774;2023-02-01T04:13:30;100604.03;;;4.35;68.41
72961;BME280;61141;46.204;19.774;2023-02-01T04:16:33;100586.50;;;4.24;68.61
72961;BME280;61141;46.204;19.774;2023-02-01T04:19:36;100599.72;;;4.34;68.63
72961;BME280;61141;46.204;19.774;2023-02-01T04:22:39;100599.41;;;4.18;69.72
72961;BME280;61141;46.204;19.774;2023-02-01T04:25:42;100608.34;;;4.27;69.34
72961;BME280;61141;46.204;19.774;2023-02-01T04:28:46;100607.06;;;4.25;68.79
72961;BME280;61141;46.204;19.774;2023-02-01T04:31:51;100606.09;;;4.21;68.77
72961;BME280;61141;46.204;19.774;2023-02-01T04:34:55;100599.25;;;4.06;70.12
72961;BME280;61141;46.204;19.774;2023-02-01T04:37:57;100600.38;;;4.13;69.65
72961;BME280;61141;46.204;19.774;2023-02-01T04:41:00;100604.84;;;4.09;70.28
72961;BME280;61141;46.204;19.774;2023-02-01T04:44:03;100607.72;;;4.13;70.18
72961;BME280;61141;46.204;19.774;2023-02-01T04:47:06;100593.22;;;4.00;70.30
72961;BME280;61141;46.204;19.774;2023-02-01T04:50:10;100610.41;;;3.87;70.93
72961;BME280;61141;46.204;19.774;2023-02-01T04:53:14;100604.19;;;3.95;70.47
72961;BME280;61141;46.204;19.774;2023-02-01T04:56:17;100631.78;;;4.14;70.42
72961;BME280;61141;46.204;19.774;2023-02-01T04:59:20;100631.13;;;4.09;70.29
72961;BME280;61141;46.204;19.774;2023-02-01T05:02:22;100612.63;;;3.77;70.49
72961;BME280;61141;46.204;19.774;2023-02-01T05:05:26;100629.03;;;3.63;71.28
72961;BME280;61141;46.204;19.774;2023-02-01T05:08:29;100616.41;;;3.50;71.75
72961;BME280;61141;46.204;19.774;2023-02-01T05:11:32;100642.09;;;3.61;71.93
72961;BME280;61141;46.204;19.774;2023-02-01T05:14:53;100634.59;;;3.58;72.30
72961;BME280;61141;46.204;19.774;2023-02-01T05:17:57;100617.53;;;3.49;72.03
72961;BME280;61141;46.204;19.774;2023-02-01T05:21:00;100617.88;;;3.56;72.60
72961;BME280;61141;46.204;19.774;2023-02-01T05:24:04;100620.84;;;3.37;72.63
72961;BME280;61141;46.204;19.774;2023-02-01T05:27:15;100632.47;;;3.38;73.09
72961;BME280;61141;46.204;19.774;2023-02-01T05:30:18;100615.34;;;3.12;73.92
72961;BME280;61141;46.204;19.774;2023-02-01T05:33:21;100602.09;;;3.02;74.11
72961;BME280;61141;46.204;19.774;2023-02-01T05:36:24;100610.19;;;3.02;74.16
72961;BME280;61141;46.204;19.774;2023-02-01T05:39:27;100601.31;;;2.70;74.82
72961;BME280;61141;46.204;19.774;2023-02-01T05:42:30;100625.06;;;2.82;74.99
72961;BME280;61141;46.204;19.774;2023-02-01T05:45:32;100620.91;;;2.76;75.54
72961;BME280;61141;46.204;19.774;2023-02-01T05:48:36;100636.87;;;2.86;75.70
72961;BME280;61141;46.204;19.774;2023-02-01T05:51:38;100639.00;;;2.67;76.16
72961;BME280;61141;46.204;19.774;2023-02-01T05:54:41;100611.38;;;2.25;77.13
72961;BME280;61141;46.204;19.774;2023-02-01T05:57:44;100632.72;;;2.13;77.30
72961;BME280;61141;46.204;19.774;2023-02-01T06:00:47;100647.19;;;2.31;77.90
72961;BME280;61141;46.204;19.774;2023-02-01T06:03:50;100647.22;;;2.17;77.63
72961;BME280;61141;46.204;19.774;2023-02-01T06:06:53;100651.59;;;2.27;78.75
72961;BME280;61141;46.204;19.774;2023-02-01T06:09:56;100659.56;;;2.32;78.42
72961;BME280;61141;46.204;19.774;2023-02-01T06:12:58;100654.97;;;2.32;77.77
72961;BME280;61141;46.204;19.774;2023-02-01T06:16:02;100655.25;;;2.09;78.55
72961;BME280;61141;46.204;19.774;2023-02-01T06:19:05;100643.38;;;2.10;79.37
72961;BME280;61141;46.204;19.774;2023-02-01T06:22:09;100669.22;;;2.24;78.09
72961;BME280;61141;46.204;19.774;2023-02-01T06:25:11;100640.34;;;2.11;78.25
72961;BME280;61141;46.204;19.774;2023-02-01T06:28:14;100668.75;;;2.45;77.59
72961;BME280;61141;46.204;19.774;2023-02-01T06:31:17;100669.91;;;2.52;76.74
72961;BME280;61141;46.204;19.774;2023-02-01T06:34:22;100675.44;;;2.69;77.07
72961;BME280;61141;46.204;19.774;2023-02-01T06:37:25;100646.13;;;2.63;75.93
72961;BME280;61141;46.204;19.774;2023-02-01T06:40:30;100648.72;;;2.46;76.09
72961;BME280;61141;46.204;19.774;2023-02-01T06:43:33;100675.62;;;2.73;76.60
72961;BME280;61141;46.204;19.774;2023-02-01T06:46:37;100677.78;;;2.84;75.76
72961;BME280;61141;46.204;19.774;2023-02-01T06:49:40;100679.66;;;2.84;75.32
72961;BME280;61141;46.204;19.774;2023-02-01T06:52:43;100678.38;;;3.12;74.72
72961;BME280;61141;46.204;19.774;2023-02-01T06:55:57;100679.44;;;3.33;73.66
72961;BME280;61141;46.204;19.774;2023-02-01T06:59:04;100682.28;;;3.76;72.13
72961;BME280;61141;46.204;19.774;2023-02-01T07:02:10;100638.50;;;4.00;70.61
72961;BME280;61141;46.204;19.774;2023-02-01T07:05:14;100673.09;;;4.29;70.12
72961;BME280;61141;46.204;19.774;2023-02-01T07:08:17;100681.69;;;4.48;68.95
72961;BME280;61141;46.204;19.774;2023-02-01T07:11:20;100666.38;;;4.69;68.57
72961;BME280;61141;46.204;19.774;2023-02-01T07:14:23;100686.06;;;5.04;68.12
72961;BME280;61141;46.204;19.774;2023-02-01T07:17:25;100670.56;;;5.51;66.12
72961;BME280;61141;46.204;19.774;2023-02-01T07:20:28;100672.91;;;5.61;65.28
72961;BME280;61141;46.204;19.774;2023-02-01T07:23:31;100694.78;;;5.35;65.44
72961;BME280;61141;46.204;19.774;2023-02-01T07:26:34;100695.00;;;5.51;65.99
72961;BME280;61141;46.204;19.774;2023-02-01T07:29:37;100695.44;;;5.61;64.64
72961;BME280;61141;46.204;19.774;2023-02-01T07:32:40;100697.72;;;5.80;64.97
72961;BME280;61141;46.204;19.774;2023-02-01T07:35:43;100695.13;;;5.63;64.87
72961;BME280;61141;46.204;19.774;2023-02-01T07:38:46;100691.56;;;5.71;64.50
72961;BME280;61141;46.204;19.774;2023-02-01T07:41:50;100699.72;;;6.00;63.67
72961;BME280;61141;46.204;19.774;2023-02-01T07:44:53;100701.22;;;6.18;62.24
72961;BME280;61141;46.204;19.774;2023-02-01T07:47:56;100712.44;;;6.37;61.86
72961;BME280;61141;46.204;19.774;2023-02-01T07:51:02;100709.28;;;6.06;63.09
72961;BME280;61141;46.204;19.774;2023-02-01T07:54:05;100711.06;;;6.85;62.29
72961;BME280;61141;46.204;19.774;2023-02-01T07:57:07;100700.63;;;6.87;60.68
72961;BME280;61141;46.204;19.774;2023-02-01T08:00:12;100687.03;;;6.99;60.77
72961;BME280;61141;46.204;19.774;2023-02-01T08:03:34;100678.22;;;7.14;60.05
72961;BME280;61141;46.204;19.774;2023-02-01T08:06:36;100702.97;;;7.09;59.96
72961;BME280;61141;46.204;19.774;2023-02-01T08:09:40;100706.88;;;6.87;60.93
72961;BME280;61141;46.204;19.774;2023-02-01T08:12:43;100679.44;;;7.04;61.35
72961;BME280;61141;46.204;19.774;2023-02-01T08:15:50;100686.31;;;7.35;59.47
72961;BME280;61141;46.204;19.774;2023-02-01T08:18:53;100712.22;;;7.41;58.99
72961;BME280;61141;46.204;19.774;2023-02-01T08:21:56;100710.75;;;7.92;58.90
72961;BME280;61141;46.204;19.774;2023-02-01T08:24:59;100704.84;;;7.78;58.34
72961;BME280;61141;46.204;19.774;2023-02-01T08:28:05;100704.50;;;7.55;59.23
72961;BME280;61141;46.204;19.774;2023-02-01T08:31:10;100712.88;;;7.38;60.27
72961;BME280;61141;46.204;19.774;2023-02-01T08:34:13;100704.06;;;7.89;59.61
72961;BME280;61141;46.204;19.774;2023-02-01T08:37:16;100708.47;;;7.57;58.48
72961;BME280;61141;46.204;19.774;2023-02-01T08:40:19;100689.84;;;7.72;58.00
72961;BME280;61141;46.204;19.774;2023-02-01T08:43:24;100706.50;;;8.18;59.00
72961;BME280;61141;46.204;19.774;2023-02-01T08:46:27;100699.91;;;8.32;58.94
72961;BME280;61141;46.204;19.774;2023-02-01T08:49:30;100690.09;;;7.79;57.72
72961;BME280;61141;46.204;19.774;2023-02-01T08:52:33;100711.37;;;8.37;57.77
72961;BME280;61141;46.204;19.774;2023-02-01T08:55:39;100698.00;;;8.20;58.62
72961;BME280;61141;46.204;19.774;2023-02-01T08:58:42;100696.59;;;8.26;56.19
72961;BME280;61141;46.204;19.774;2023-02-01T09:01:45;100716.72;;;8.46;56.05
72961;BME280;61141;46.204;19.774;2023-02-01T09:04:48;100725.00;;;8.49;56.23
72961;BME280;61141;46.204;19.774;2023-02-01T09:07:51;100724.38;;;8.68;54.81
72961;BME280;61141;46.204;19.774;2023-02-01T09:11:01;100705.50;;;8.63;54.20
72961;BME280;61141;46.204;19.774;2023-02-01T09:14:05;100736.22;;;8.60;55.19
72961;BME280;61141;46.204;19.774;2023-02-01T09:17:08;100688.06;;;8.40;54.14
72961;BME280;61141;46.204;19.774;2023-02-01T09:20:12;100722.41;;;8.80;52.69
72961;BME280;61141;46.204;19.774;2023-02-01T09:23:15;100729.72;;;8.64;54.47
72961;BME280;61141;46.204;19.774;2023-02-01T09:26:17;100728.84;;;8.60;54.35
72961;BME280;61141;46.204;19.774;2023-02-01T09:29:24;100711.16;;;8.18;53.60
72961;BME280;61141;46.204;19.774;2023-02-01T09:32:27;100731.97;;;8.47;54.75
72961;BME280;61141;46.204;19.774;2023-02-01T09:35:30;100717.31;;;8.15;53.91
72961;BME280;61141;46.204;19.774;2023-02-01T09:38:33;100736.44;;;8.27;52.42
72961;BME280;61141;46.204;19.774;2023-02-01T09:42:43;100741.31;;;7.85;54.23
72961;BME280;61141;46.204;19.774;2023-02-01T09:49:20;100737.88;;;8.24;55.11
72961;BME280;61141;46.204;19.774;2023-02-01T09:52:33;100730.50;;;8.25;53.79
72961;BME280;61141;46.204;19.774;2023-02-01T09:58:56;100723.88;;;8.50;54.28
72961;BME280;61141;46.204;19.774;2023-02-01T10:02:04;100721.69;;;8.56;53.39
72961;BME280;61141;46.204;19.774;2023-02-01T10:05:20;100708.97;;;8.75;54.31
72961;BME280;61141;46.204;19.774;2023-02-01T10:08:52;100697.69;;;9.05;53.46
72961;BME280;61141;46.204;19.774;2023-02-01T10:15:44;100686.69;;;9.17;53.59
72961;BME280;61141;46.204;19.774;2023-02-01T10:22:19;100687.13;;;9.34;53.05
72961;BME280;61141;46.204;19.774;2023-02-01T10:25:44;100647.72;;;8.61;52.67
72961;BME280;61141;46.204;19.774;2023-02-01T10:29:03;100665.09;;;9.27;52.55
72961;BME280;61141;46.204;19.774;2023-02-01T10:32:21;100656.72;;;9.36;53.29
72961;BME280;61141;46.204;19.774;2023-02-01T10:35:28;100642.59;;;9.18;52.88
72961;BME280;61141;46.204;19.774;2023-02-01T10:38:33;100652.09;;;9.71;52.99
72961;BME280;61141;46.204;19.774;2023-02-01T10:41:38;100650.53;;;9.55;54.30
72961;BME280;61141;46.204;19.774;2023-02-01T10:44:43;100619.38;;;9.59;54.10
72961;BME280;61141;46.204;19.774;2023-02-01T10:47:50;100637.66;;;9.24;54.47
72961;BME280;61141;46.204;19.774;2023-02-01T10:50:58;100631.22;;;9.48;54.06
72961;BME280;61141;46.204;19.774;2023-02-01T10:54:16;100628.94;;;9.50;54.22
72961;BME280;61141;46.204;19.774;2023-02-01T10:57:25;100594.06;;;9.62;54.16
72961;BME280;61141;46.204;19.774;2023-02-01T11:00:37;100611.09;;;9.56;54.23
72961;BME280;61141;46.204;19.774;2023-02-01T11:03:51;100593.88;;;9.05;54.98
72961;BME280;61141;46.204;19.774;2023-02-01T11:07:16;100607.44;;;9.01;55.77
72961;BME280;61141;46.204;19.774;2023-02-01T11:10:42;100600.72;;;9.14;55.68
72961;BME280;61141;46.204;19.774;2023-02-01T11:13:52;100601.16;;;9.32;55.72
72961;BME280;61141;46.204;19.774;2023-02-01T11:17:01;100591.12;;;9.20;56.49
72961;BME280;61141;46.204;19.774;2023-02-01T11:20:12;100565.84;;;9.08;56.10
72961;BME280;61141;46.204;19.774;2023-02-01T11:23:19;100579.06;;;9.56;56.89
72961;BME280;61141;46.204;19.774;2023-02-01T11:26:26;100568.75;;;9.84;55.99
72961;BME280;61141;46.204;19.774;2023-02-01T11:29:38;100551.97;;;9.32;55.63
72961;BME280;61141;46.204;19.774;2023-02-01T11:32:46;100548.94;;;9.37;56.49
72961;BME280;61141;46.204;19.774;2023-02-01T11:35:51;100548.81;;;9.84;55.59
72961;BME280;61141;46.204;19.774;2023-02-01T11:42:17;100526.81;;;9.61;55.54
72961;BME280;61141;46.204;19.774;2023-02-01T11:45:27;100530.81;;;9.64;54.06
72961;BME280;61141;46.204;19.774;2023-02-01T11:48:32;100517.94;;;10.22;53.06
72961;BME280;61141;46.204;19.774;2023-02-01T12:02:02;100478.16;;;10.28;50.33
72961;BME280;61141;46.204;19.774;2023-02-01T12:25:18;100442.66;;;10.80;50.07
72961;BME280;61141;46.204;19.774;2023-02-01T12:32:28;100440.97;;;10.98;48.50
72961;BME280;61141;46.204;19.774;2023-02-01T12:35:56;100439.28;;;10.90;49.79
72961;BME280;61141;46.204;19.774;2023-02-01T12:42:19;100429.47;;;10.18;49.78
72961;BME280;61141;46.204;19.774;2023-02-01T12:45:32;100421.53;;;10.58;50.33
72961;BME280;61141;46.204;19.774;2023-02-01T12:49:05;100426.75;;;10.89;50.79
72961;BME280;61141;46.204;19.774;2023-02-01T12:52:10;100427.56;;;10.41;49.80
72961;BME280;61141;46.204;19.774;2023-02-01T13:01:50;100421.53;;;10.58;50.17
72961;BME280;61141;46.204;19.774;2023-02-01T13:05:05;100434.25;;;10.43;51.78
72961;BME280;61141;46.204;19.774;2023-02-01T13:08:17;100429.78;;;10.84;51.20
72961;BME280;61141;46.204;19.774;2023-02-01T13:11:28;100414.81;;;10.78;51.80
72961;BME280;61141;46.204;19.774;2023-02-01T13:14:46;100440.53;;;10.70;51.55
72961;BME280;61141;46.204;19.774;2023-02-01T13:17:52;100450.19;;;10.38;52.34
72961;BME280;61141;46.204;19.774;2023-02-01T13:21:08;100433.37;;;10.62;52.68
72961;BME280;61141;46.204;19.774;2023-02-01T13:24:47;100428.28;;;10.38;54.04
72961;BME280;61141;46.204;19.774;2023-02-01T13:27:53;100451.44;;;10.44;54.49
72961;BME280;61141;46.204;19.774;2023-02-01T13:37:45;100474.69;;;10.31;56.63
72961;BME280;61141;46.204;19.774;2023-02-01T13:44:10;100492.97;;;9.50;63.08
72961;BME280;61141;46.204;19.774;2023-02-01T13:50:40;100491.72;;;8.94;67.28
72961;BME280;61141;46.204;19.774;2023-02-01T13:53:47;100477.63;;;8.92;68.45
72961;BME280;61141;46.204;19.774;2023-02-01T13:56:50;100468.13;;;8.85;68.87
72961;BME280;61141;46.204;19.774;2023-02-01T14:00:05;100458.88;;;8.43;69.11
72961;BME280;61141;46.204;19.774;2023-02-01T14:03:16;100454.75;;;8.49;69.66
72961;BME280;61141;46.204;19.774;2023-02-01T14:09:34;100475.09;;;8.52;70.12
72961;BME280;61141;46.204;19.774;2023-02-01T14:12:49;100461.34;;;8.33;70.73
72961;BME280;61141;46.204;19.774;2023-02-01T14:16:13;100456.41;;;8.54;70.72
72961;BME280;61141;46.204;19.774;2023-02-01T14:19:25;100477.03;;;8.67;68.77
72961;BME280;61141;46.204;19.774;2023-02-01T14:22:33;100482.56;;;8.55;69.73
72961;BME280;61141;46.204;19.774;2023-02-01T14:25:37;100478.78;;;8.28;69.78
72961;BME280;61141;46.204;19.774;2023-02-01T14:28:45;100480.87;;;8.35;68.59
72961;BME280;61141;46.204;19.774;2023-02-01T14:35:26;100516.72;;;8.64;65.97
72961;BME280;61141;46.204;19.774;2023-02-01T14:38:31;100527.81;;;8.40;68.09
72961;BME280;61141;46.204;19.774;2023-02-01T14:41:35;100506.13;;;8.04;64.01
72961;BME280;61141;46.204;19.774;2023-02-01T14:44:38;100503.22;;;7.97;66.49
72961;BME280;61141;46.204;19.774;2023-02-01T14:51:11;100489.69;;;8.00;66.34
72961;BME280;61141;46.204;19.774;2023-02-01T14:54:18;100464.63;;;7.55;65.05
72961;BME280;61141;46.204;19.774;2023-02-01T14:57:25;100481.69;;;7.52;68.85
72961;BME280;61141;46.204;19.774;2023-02-01T15:00:30;100455.22;;;7.52;66.62
72961;BME280;61141;46.204;19.774;2023-02-01T15:03:51;100491.03;;;7.79;65.55
72961;BME280;61141;46.204;19.774;2023-02-01T15:07:05;100502.13;;;7.86;65.59
72961;BME280;61141;46.204;19.774;2023-02-01T15:10:09;100507.72;;;7.77;66.15
72961;BME280;61141;46.204;19.774;2023-02-01T15:13:22;100499.66;;;7.81;65.25
72961;BME280;61141;46.204;19.774;2023-02-01T15:16:25;100519.19;;;7.83;65.86
72961;BME280;61141;46.204;19.774;2023-02-01T15:19:29;100539.91;;;7.59;63.61
72961;BME280;61141;46.204;19.774;2023-02-01T15:22:33;100546.28;;;7.51;66.00
72961;BME280;61141;46.204;19.774;2023-02-01T15:25:38;100567.53;;;7.58;65.84
72961;BME280;61141;46.204;19.774;2023-02-01T15:28:41;100580.34;;;7.57;68.01
72961;BME280;61141;46.204;19.774;2023-02-01T15:31:46;100586.69;;;6.77;71.64
72961;BME280;61141;46.204;19.774;2023-02-01T15:34:49;100594.19;;;6.68;73.84
72961;BME280;61141;46.204;19.774;2023-02-01T15:37:52;100568.34;;;6.86;74.23
72961;BME280;61141;46.204;19.774;2023-02-01T15:44:27;100623.63;;;6.66;75.86
72961;BME280;61141;46.204;19.774;2023-02-01T15:47:31;100637.72;;;6.68;76.17
72961;BME280;61141;46.204;19.774;2023-02-01T15:50:39;100601.19;;;6.69;77.69
72961;BME280;61141;46.204;19.774;2023-02-01T15:54:07;100585.75;;;6.48;79.19
72961;BME280;61141;46.204;19.774;2023-02-01T15:57:22;100602.66;;;6.66;80.78
72961;BME280;61141;46.204;19.774;2023-02-01T16:00:43;100588.25;;;6.54;80.68
72961;BME280;61141;46.204;19.774;2023-02-01T16:03:47;100566.72;;;6.28;82.14
72961;BME280;61141;46.204;19.774;2023-02-01T16:06:56;100587.09;;;6.55;81.81
72961;BME280;61141;46.204;19.774;2023-02-01T16:10:01;100578.75;;;6.27;82.60
72961;BME280;61141;46.204;19.774;2023-02-01T16:13:10;100603.91;;;6.69;81.42
72961;BME280;61141;46.204;19.774;2023-02-01T16:16:13;100608.28;;;6.49;82.21
72961;BME280;61141;46.204;19.774;2023-02-01T16:19:16;100604.81;;;6.28;83.36
72961;BME280;61141;46.204;19.774;2023-02-01T16:22:19;100606.06;;;6.30;82.92
72961;BME280;61141;46.204;19.774;2023-02-01T16:25:22;100591.78;;;6.21;83.44
72961;BME280;61141;46.204;19.774;2023-02-01T16:28:25;100600.66;;;6.10;83.74
72961;BME280;61141;46.204;19.774;2023-02-01T16:31:30;100595.75;;;6.03;84.11
72961;BME280;61141;46.204;19.774;2023-02-01T16:34:34;100599.22;;;5.83;84.68
72961;BME280;61141;46.204;19.774;2023-02-01T16:37:38;100595.88;;;6.07;84.37
72961;BME280;61141;46.204;19.774;2023-02-01T16:40:42;100589.00;;;5.80;84.76
72961;BME280;61141;46.204;19.774;2023-02-01T16:43:45;100582.84;;;5.71;84.93
72961;BME280;61141;46.204;19.774;2023-02-01T16:46:51;100586.59;;;5.87;84.39
72961;BME280;61141;46.204;19.774;2023-02-01T16:49:54;100590.56;;;5.69;84.39
72961;BME280;61141;46.204;19.774;2023-02-01T16:52:57;100563.22;;;5.45;84.71
72961;BME280;61141;46.204;19.774;2023-02-01T16:56:04;100576.31;;;5.43;85.10
72961;BME280;61141;46.204;19.774;2023-02-01T16:59:09;100560.66;;;5.19;85.69
72961;BME280;61141;46.204;19.774;2023-02-01T17:02:21;100553.59;;;5.26;85.44
72961;BME280;61141;46.204;19.774;2023-02-01T17:05:25;100576.56;;;5.29;85.51
72961;BME280;61141;46.204;19.774;2023-02-01T17:11:36;100578.47;;;4.99;86.71
72961;BME280;61141;46.204;19.774;2023-02-01T17:14:40;100573.13;;;5.11;86.64
72961;BME280;61141;46.204;19.774;2023-02-01T17:17:44;100578.72;;;5.15;86.59
72961;BME280;61141;46.204;19.774;2023-02-01T17:20:47;100572.25;;;4.99;86.96
72961;BME280;61141;46.204;19.774;2023-02-01T17:23:51;100561.16;;;4.83;87.14
72961;BME280;61141;46.204;19.774;2023-02-01T17:26:55;100563.94;;;4.95;87.47
72961;BME280;61141;46.204;19.774;2023-02-01T17:29:58;100554.69;;;4.96;87.64
72961;BME280;61141;46.204;19.774;2023-02-01T17:33:03;100528.97;;;4.64;88.05
72961;BME280;61141;46.204;19.774;2023-02-01T17:36:23;100550.91;;;4.89;87.92
72961;BME280;61141;46.204;19.774;2023-02-01T17:39:26;100553.19;;;4.69;88.57
72961;BME280;61141;46.204;19.774;2023-02-01T17:42:49;100526.00;;;4.49;88.85
72961;BME280;61141;46.204;19.774;2023-02-01T17:46:01;100546.03;;;4.65;89.28
72961;BME280;61141;46.204;19.774;2023-02-01T17:49:07;100548.69;;;4.82;88.54
72961;BME280;61141;46.204;19.774;2023-02-01T17:52:16;100536.56;;;4.80;88.43
72961;BME280;61141;46.204;19.774;2023-02-01T17:55:22;100513.94;;;4.67;88.14
72961;BME280;61141;46.204;19.774;2023-02-01T17:58:26;100521.97;;;4.63;88.59
72961;BME280;61141;46.204;19.774;2023-02-01T18:01:32;100534.81;;;4.75;88.75
72961;BME280;61141;46.204;19.774;2023-02-01T18:04:35;100536.72;;;4.83;88.18
72961;BME280;61141;46.204;19.774;2023-02-01T18:07:39;100535.13;;;4.82;87.84
72961;BME280;61141;46.204;19.774;2023-02-01T18:10:43;100528.28;;;4.76;87.68
72961;BME280;61141;46.204;19.774;2023-02-01T18:13:47;100538.66;;;4.74;87.64
72961;BME280;61141;46.204;19.774;2023-02-01T18:16:51;100535.31;;;4.77;87.51